Time;durP1;ratioP1;P1;durP2;ratioP2;P2;SDS_P1;SDS_P2;PMS_P1;PMS_P2;Temp;Humidity;BMP_temperature;BMP_pressure;BME280_temperature;BME280_humidity;BME280_pressure;Samples;Min_cycle;Max_cycle;Signal;HPM_P1;HPM_P2
2022/08/21 00:00:32;;;;;;;0.00;0.00;;;21.30;92.40;;;;;;4971951;28;20031;-65
2022/08/21 00:03:04;;;;;;;0.00;0.00;;;21.20;92.60;;;;;;4986664;28;20041;-65
2022/08/21 00:05:34;;;;;;;0.15;0.15;;;21.20;92.40;;;;;;4986849;28;20395;-65
2022/08/21 00:08:00;;;;;;;0.10;0.10;;;21.20;92.20;;;;;;4971857;28;20045;-64
2022/08/21 00:10:26;;;;;;;0.05;0.05;;;21.30;92.40;;;;;;4954567;28;20031;-65
2022/08/21 00:12:52;;;;;;;0.10;0.10;;;21.40;92.30;;;;;;4971762;28;20038;-65
2022/08/21 00:15:26;;;;;;;0.98;0.40;;;21.30;92.30;;;;;;4972226;28;20066;-64
2022/08/21 00:17:53;;;;;;;0.70;0.55;;;21.20;92.40;;;;;;4971808;28;20030;-64
2022/08/21 00:20:20;;;;;;;0.32;0.32;;;21.10;92.40;;;;;;4986575;28;20035;-65
2022/08/21 00:22:48;;;;;;;0.10;0.10;;;20.90;92.60;;;;;;4970877;28;20479;-65
2022/08/21 00:25:16;;;;;;;0.17;0.15;;;20.80;92.80;;;;;;4986767;28;20026;-64
2022/08/21 00:27:43;;;;;;;0.10;0.10;;;20.70;92.80;;;;;;4986630;28;20049;-64
2022/08/21 00:30:11;;;;;;;0.10;0.10;;;20.70;93.40;;;;;;4986466;28;20054;-65
2022/08/21 00:32:40;;;;;;;0.75;0.45;;;20.60;93.10;;;;;;4986440;28;20041;-65
2022/08/21 00:35:11;;;;;;;0.32;0.32;;;20.50;93.30;;;;;;4986769;28;20399;-65
2022/08/21 00:37:38;;;;;;;0.65;0.47;;;20.50;93.60;;;;;;4986291;28;20062;-65
2022/08/21 00:40:09;;;;;;;0.15;0.15;;;20.40;93.60;;;;;;4971647;28;20113;-64
2022/08/21 00:42:35;;;;;;;;;;;20.10;93.80;;;;;;4986619;28;20133;-64
2022/08/21 00:45:02;;;;;;;0.10;0.10;;;19.90;94.50;;;;;;4970648;28;20387;-65
2022/08/21 00:47:28;;;;;;;1.10;0.70;;;19.70;95.80;;;;;;4986438;28;20042;-64
2022/08/21 00:49:53;;;;;;;4.32;2.15;;;19.60;96.50;;;;;;4970212;28;20026;-64
2022/08/21 00:52:24;;;;;;;0.75;0.75;;;19.60;97.10;;;;;;4971505;28;20026;-64
2022/08/21 00:54:50;;;;;;;;;;;19.60;97.30;;;;;;4986608;28;20118;-64
2022/08/21 00:57:23;;;;;;;1.38;1.27;;;19.50;97.40;;;;;;4971670;28;20004;-65
2022/08/21 00:59:53;;;;;;;0.35;0.32;;;19.60;97.40;;;;;;4985953;28;20080;-64
2022/08/21 01:02:20;;;;;;;0.35;0.25;;;19.70;97.50;;;;;;4985811;28;20031;-64
2022/08/21 01:04:46;;;;;;;0.75;0.45;;;19.70;97.50;;;;;;4968096;28;20034;-64
2022/08/21 01:07:12;;;;;;;0.13;0.13;;;19.60;97.90;;;;;;4978001;28;20031;-65
2022/08/21 01:09:40;;;;;;;0.57;0.40;;;19.60;98.00;;;;;;4969611;28;20046;-64
2022/08/21 01:12:06;;;;;;;0.45;0.40;;;19.30;98.70;;;;;;4969956;28;20034;-64
2022/08/21 01:14:33;;;;;;;0.13;0.13;;;19.10;99.90;;;;;;4971057;28;20117;-64
2022/08/21 01:17:03;;;;;;;0.10;0.10;;;19.10;99.90;;;;;;4970111;28;20062;-64
2022/08/21 01:19:29;;;;;;;0.00;0.00;;;18.90;99.90;;;;;;4969797;28;20038;-64
2022/08/21 01:21:56;;;;;;;0.00;0.00;;;18.90;99.90;;;;;;4969859;28;20439;-64
2022/08/21 01:24:22;;;;;;;0.17;0.17;;;18.90;99.90;;;;;;4969912;28;20033;-64
2022/08/21 01:26:49;;;;;;;0.13;0.13;;;18.80;99.90;;;;;;4969653;28;20035;-64
2022/08/21 01:29:50;;;;;;;0.55;0.40;;;18.70;99.90;;;;;;4953429;28;20085;-64
2022/08/21 01:32:18;;;;;;;0.00;0.00;;;18.50;99.90;;;;;;4954813;28;20766;-65
2022/08/21 01:34:47;;;;;;;0.65;0.52;;;18.40;99.90;;;;;;4973381;28;20078;-65
2022/08/21 01:37:14;;;;;;;1.17;0.90;;;18.40;99.90;;;;;;4973268;28;20031;-65
2022/08/21 01:39:41;;;;;;;0.05;0.05;;;18.60;99.90;;;;;;4973087;28;20031;-65
2022/08/21 01:42:08;;;;;;;0.30;0.30;;;18.60;99.90;;;;;;4972972;28;20451;-65
2022/08/21 01:44:33;;;;;;;0.52;0.40;;;18.60;99.90;;;;;;4972896;28;20121;-65
2022/08/21 01:47:05;;;;;;;0.00;0.00;;;18.50;99.90;;;;;;4974321;28;20197;-65
2022/08/21 01:49:31;;;;;;;1.35;0.40;;;18.50;99.90;;;;;;4972945;28;20031;-65
2022/08/21 01:51:57;;;;;;;0.65;0.65;;;18.50;99.90;;;;;;4974065;28;20395;-65
2022/08/21 01:54:22;;;;;;;0.13;0.13;;;18.40;99.90;;;;;;4974230;28;20027;-65
2022/08/21 01:56:52;;;;;;;0.00;0.00;;;18.20;99.90;;;;;;4973939;28;20456;-65
2022/08/21 01:59:18;;;;;;;0.85;0.85;;;18.10;99.90;;;;;;4988672;28;20591;-65
2022/08/21 02:01:44;;;;;;;0.25;0.25;;;18.20;99.90;;;;;;4972762;28;20038;-65
2022/08/21 02:04:11;;;;;;;1.33;1.23;;;18.30;99.90;;;;;;4973900;28;20034;-64
2022/08/21 02:06:38;;;;;;;0.00;0.00;;;18.70;99.90;;;;;;4974037;28;20035;-65
2022/08/21 02:09:07;;;;;;;1.25;0.95;;;19.10;99.90;;;;;;4981002;23;20511;-64
2022/08/21 02:11:34;;;;;;;0.10;0.05;;;19.10;99.90;;;;;;4951876;28;20028;-63
2022/08/21 02:14:00;;;;;;;0.32;0.32;;;19.20;99.90;;;;;;4946731;29;20032;-64
2022/08/21 02:16:26;;;;;;;0.88;0.43;;;19.30;99.90;;;;;;4947146;29;20043;-64
2022/08/21 02:18:52;;;;;;;5.78;2.00;;;19.30;99.90;;;;;;4927990;29;20036;-64
2022/08/21 02:21:17;;;;;;;0.00;0.00;;;18.90;99.90;;;;;;4935645;29;20035;-64
2022/08/21 02:23:44;;;;;;;0.30;0.30;;;18.60;99.90;;;;;;4934987;29;20528;-64
2022/08/21 02:26:11;;;;;;;21.85;0.95;;;18.40;99.90;;;;;;4955653;28;20023;-64
2022/08/21 02:28:37;;;;;;;1.38;0.68;;;18.10;99.90;;;;;;4953267;28;20059;-64
2022/08/21 02:31:05;;;;;;;0.38;0.38;;;18.10;99.90;;;;;;4954389;28;20056;-64
2022/08/21 02:33:31;;;;;;;0.17;0.17;;;18.00;99.90;;;;;;4952870;29;20082;-64
2022/08/21 02:35:58;;;;;;;0.55;0.55;;;17.90;99.90;;;;;;4953337;29;20047;-64
2022/08/21 02:38:29;;;;;;;0.10;0.10;;;17.90;99.90;;;;;;4954450;28;20045;-64
2022/08/21 02:40:56;;;;;;;0.30;0.30;;;17.80;99.90;;;;;;4954331;28;20584;-64
2022/08/21 02:43:26;;;;;;;0.10;0.10;;;17.80;99.90;;;;;;4952889;29;20110;-64
2022/08/21 02:45:56;;;;;;;0.30;0.30;;;17.70;99.90;;;;;;4952341;28;20043;-64
2022/08/21 02:48:26;;;;;;;0.20;0.20;;;17.60;99.90;;;;;;4954134;28;20417;-64
2022/08/21 02:50:57;;;;;;;0.65;0.65;;;17.70;99.90;;;;;;4952702;29;20066;-64
2022/08/21 02:53:23;;;;;;;;;;;17.60;99.90;;;;;;4954430;28;20039;-64
2022/08/21 02:55:51;;;;;;;0.00;0.00;;;17.50;99.90;;;;;;4985130;28;19921;-64
2022/08/21 02:58:23;;;;;;;0.08;0.08;;;17.40;99.90;;;;;;4952556;28;20035;-64
2022/08/21 03:00:49;;;;;;;0.15;0.15;;;17.40;99.90;;;;;;4968567;28;20089;-64
2022/08/21 03:03:15;;;;;;;0.38;0.38;;;17.30;99.90;;;;;;4984706;28;20454;-65
2022/08/21 03:05:42;;;;;;;0.43;0.43;;;17.30;99.90;;;;;;4953877;28;20113;-64
2022/08/21 03:08:10;;;;;;;0.70;0.70;;;17.40;99.90;;;;;;4952585;28;20028;-65
2022/08/21 03:10:42;;;;;;;0.08;0.08;;;17.40;99.90;;;;;;4953903;28;20031;-64
2022/08/21 03:13:09;;;;;;;0.05;0.05;;;17.40;99.90;;;;;;4953624;28;20027;-64
2022/08/21 03:15:36;;;;;;;0.70;0.38;;;17.40;99.90;;;;;;4953454;28;20058;-65
2022/08/21 03:18:04;;;;;;;0.00;0.00;;;17.50;99.90;;;;;;4953584;28;20095;-64
2022/08/21 03:20:32;;;;;;;0.43;0.25;;;17.50;99.90;;;;;;4967780;28;20027;-64
2022/08/21 03:22:59;;;;;;;0.22;0.22;;;17.60;99.90;;;;;;4967979;28;20032;-64
2022/08/21 03:25:27;;;;;;;0.10;0.10;;;17.50;99.90;;;;;;4953594;28;20391;-64
2022/08/21 03:27:52;;;;;;;0.95;0.80;;;17.60;99.90;;;;;;4968290;28;20456;-65
2022/08/21 03:30:20;;;;;;;0.25;0.17;;;17.60;99.90;;;;;;4953226;28;20034;-65
2022/08/21 03:32:50;;;;;;;0.43;0.30;;;17.60;99.90;;;;;;4953135;28;20454;-64
2022/08/21 03:35:17;;;;;;;0.10;0.10;;;17.50;99.90;;;;;;4953385;28;20038;-64
2022/08/21 03:37:44;;;;;;;0.03;0.03;;;17.40;99.90;;;;;;4936031;28;20067;-64
2022/08/21 03:40:13;;;;;;;0.55;0.45;;;17.60;99.90;;;;;;4951796;29;20109;-64
2022/08/21 03:42:39;;;;;;;0.10;0.10;;;17.50;99.90;;;;;;4953037;28;20062;-65
2022/08/21 03:45:06;;;;;;;0.38;0.38;;;17.40;99.90;;;;;;4953198;28;20117;-65
2022/08/21 03:47:32;;;;;;;0.03;0.03;;;17.30;99.90;;;;;;4952990;28;20507;-64
2022/08/21 03:49:59;;;;;;;0.00;0.00;;;17.20;99.90;;;;;;4953102;28;20035;-65
2022/08/21 03:52:25;;;;;;;0.40;0.25;;;17.00;99.90;;;;;;4951126;28;20046;-64
2022/08/21 03:54:51;;;;;;;0.75;0.47;;;16.90;99.90;;;;;;4967893;28;20066;-64
2022/08/21 03:57:18;;;;;;;7.47;1.27;;;16.90;99.90;;;;;;4952846;28;20042;-64
2022/08/21 03:59:44;;;;;;;6.38;0.95;;;16.80;99.90;;;;;;4951377;28;20047;-65
2022/08/21 04:02:13;;;;;;;1.45;0.50;;;16.70;99.90;;;;;;4952677;28;20042;-64
2022/08/21 04:04:39;;;;;;;0.30;0.30;;;16.80;99.90;;;;;;4952724;28;20046;-64
2022/08/21 04:07:04;;;;;;;0.15;0.15;;;17.00;99.90;;;;;;4952891;28;20039;-65
2022/08/21 04:09:30;;;;;;;0.00;0.00;;;17.00;99.90;;;;;;4952540;28;20038;-65
2022/08/21 04:11:57;;;;;;;0.00;0.00;;;17.00;99.90;;;;;;4952923;28;20031;-65
2022/08/21 04:14:23;;;;;;;0.00;0.00;;;16.90;99.90;;;;;;4952576;28;20030;-65
2022/08/21 04:16:49;;;;;;;0.20;0.20;;;16.90;99.90;;;;;;4952893;28;20027;-65
2022/08/21 04:19:15;;;;;;;0.68;0.68;;;16.90;99.90;;;;;;4952462;28;20035;-65
2022/08/21 04:21:41;;;;;;;0.10;0.10;;;17.00;99.90;;;;;;4952755;28;20144;-65
2022/08/21 04:24:09;;;;;;;0.00;0.00;;;17.00;99.90;;;;;;4952536;29;20038;-65
2022/08/21 04:26:37;;;;;;;0.22;0.22;;;16.80;99.90;;;;;;4952581;28;20082;-65
2022/08/21 04:29:06;;;;;;;3.45;0.52;;;16.80;99.90;;;;;;4935465;29;20031;-65
2022/08/21 04:31:33;;;;;;;0.17;0.17;;;16.80;99.90;;;;;;4952708;28;20066;-65
2022/08/21 04:33:59;;;;;;;0.65;0.47;;;16.70;99.90;;;;;;4951029;29;20440;-65
2022/08/21 04:36:25;;;;;;;0.93;0.70;;;16.70;99.90;;;;;;4951223;29;20075;-65
2022/08/21 04:38:50;;;;;;;0.00;0.00;;;16.70;99.90;;;;;;4952245;28;20035;-65
2022/08/21 04:41:16;;;;;;;0.77;0.77;;;16.70;99.90;;;;;;4952722;28;20066;-65
2022/08/21 04:43:42;;;;;;;0.45;0.30;;;16.70;99.90;;;;;;4952493;28;20031;-66
2022/08/21 04:46:08;;;;;;;0.00;0.00;;;16.70;99.90;;;;;;4951214;29;20038;-65
2022/08/21 04:48:34;;;;;;;0.20;0.10;;;16.80;99.90;;;;;;4952349;28;20399;-65
2022/08/21 04:51:10;;;;;;;0.50;0.10;;;16.90;99.90;;;;;;4952349;28;20032;-65
2022/08/21 04:53:52;;;;;;;2.88;0.57;;;17.00;99.90;;;;;;4951251;29;20036;-65
2022/08/21 04:56:45;;;;;;;0.10;0.10;;;17.00;99.90;;;;;;4951206;28;20043;-65
2022/08/21 04:59:22;;;;;;;2.35;0.47;;;16.70;99.90;;;;;;4952238;28;20082;-65
2022/08/21 05:01:48;;;;;;;24.83;0.77;;;16.60;99.90;;;;;;4951235;29;20436;-65
2022/08/21 05:04:21;;;;;;;1.05;0.50;;;16.40;99.90;;;;;;4950894;29;20429;-65
2022/08/21 05:06:50;;;;;;;0.75;0.75;;;16.40;99.90;;;;;;4951328;29;20034;-65
2022/08/21 05:09:19;;;;;;;1.55;0.88;;;16.40;99.90;;;;;;4953639;28;20038;-65
2022/08/21 05:11:44;;;;;;;0.40;0.40;;;16.50;99.90;;;;;;4954782;29;20537;-65
2022/08/21 05:14:12;;;;;;;0.17;0.15;;;16.70;99.90;;;;;;4955939;28;20027;-65
2022/08/21 05:16:38;;;;;;;0.32;0.32;;;16.70;99.90;;;;;;4967627;28;20036;-65
2022/08/21 05:19:06;;;;;;;0.05;0.05;;;16.70;99.90;;;;;;4936394;29;20032;-65
2022/08/21 05:21:33;;;;;;;1.17;0.43;;;16.80;99.90;;;;;;4936708;29;20039;-65
2022/08/21 05:23:59;;;;;;;2.08;1.13;;;17.00;99.90;;;;;;4939550;29;20035;-65
2022/08/21 05:26:25;;;;;;;1.45;0.68;;;17.20;99.90;;;;;;4955630;28;20031;-65
2022/08/21 05:28:51;;;;;;;6.93;1.67;;;17.20;99.90;;;;;;4955399;28;20054;-65
2022/08/21 05:31:18;;;;;;;0.90;0.75;;;17.20;99.90;;;;;;4955604;28;20077;-65
2022/08/21 05:33:43;;;;;;;0.40;0.40;;;17.30;99.90;;;;;;4955455;28;20039;-65
2022/08/21 05:36:09;;;;;;;1.55;0.95;;;17.30;99.90;;;;;;4955387;28;20093;-65
2022/08/21 05:38:35;;;;;;;0.45;0.45;;;17.30;99.90;;;;;;4955414;28;20430;-65
2022/08/21 05:41:00;;;;;;;0.40;0.40;;;17.30;99.90;;;;;;4955150;28;20042;-65
2022/08/21 05:43:26;;;;;;;0.57;0.38;;;17.30;99.90;;;;;;4954844;28;20436;-65
2022/08/21 05:45:52;;;;;;;0.13;0.13;;;17.20;99.90;;;;;;4955016;29;20034;-65
2022/08/21 05:48:21;;;;;;;0.10;0.10;;;17.20;99.90;;;;;;4955142;29;20076;-64
2022/08/21 05:50:49;;;;;;;0.30;0.22;;;17.30;99.90;;;;;;4986029;28;20164;-64
2022/08/21 05:53:17;;;;;;;0.70;0.70;;;17.50;99.90;;;;;;4969676;28;20115;-64
2022/08/21 05:55:44;;;;;;;0.30;0.30;;;17.60;99.90;;;;;;4969952;28;20109;-64
2022/08/21 05:58:10;;;;;;;0.40;0.35;;;17.70;99.90;;;;;;4953830;28;20031;-64
2022/08/21 06:00:36;;;;;;;0.20;0.20;;;17.70;99.90;;;;;;4954138;28;20066;-65
2022/08/21 06:03:03;;;;;;;0.00;0.00;;;17.60;99.90;;;;;;4954592;29;20070;-65
2022/08/21 06:05:30;;;;;;;0.95;0.82;;;17.60;99.90;;;;;;4954897;28;20019;-65
2022/08/21 06:07:56;;;;;;;0.32;0.32;;;17.70;99.90;;;;;;4955101;28;20030;-65
2022/08/21 06:10:21;;;;;;;1.10;1.00;;;17.80;99.90;;;;;;4954948;28;20081;-65
2022/08/21 06:12:53;;;;;;;1.00;0.90;;;17.90;99.90;;;;;;4954799;28;20039;-65
2022/08/21 06:15:19;;;;;;;3.05;0.68;;;18.00;99.90;;;;;;4955011;28;20027;-65
2022/08/21 06:17:45;;;;;;;4.60;2.13;;;18.00;99.90;;;;;;4954736;28;20065;-65
2022/08/21 06:20:11;;;;;;;0.25;0.25;;;18.00;99.90;;;;;;4952197;28;20042;-65
2022/08/21 06:22:36;;;;;;;2.20;0.93;;;18.00;99.90;;;;;;4954407;28;20102;-65
2022/08/21 06:25:02;;;;;;;6.68;1.02;;;18.00;99.90;;;;;;4953686;29;20023;-65
2022/08/21 06:27:29;;;;;;;0.13;0.13;;;18.00;99.90;;;;;;4953377;28;20034;-66
2022/08/21 06:29:57;;;;;;;0.47;0.43;;;18.10;99.90;;;;;;4954650;28;20456;-65
2022/08/21 06:32:22;;;;;;;0.35;0.35;;;18.20;99.90;;;;;;4954151;28;20042;-65
2022/08/21 06:34:48;;;;;;;0.90;0.70;;;18.20;99.90;;;;;;4954664;28;20040;-65
2022/08/21 06:37:14;;;;;;;0.35;0.35;;;18.30;99.90;;;;;;4954463;28;20519;-65
2022/08/21 06:39:40;;;;;;;0.55;0.55;;;18.30;99.90;;;;;;4954141;28;20071;-65
2022/08/21 06:42:05;;;;;;;0.15;0.15;;;18.40;99.90;;;;;;4954155;28;20085;-65
2022/08/21 06:44:31;;;;;;;0.20;0.15;;;18.50;99.90;;;;;;4954267;28;20034;-65
2022/08/21 06:46:57;;;;;;;2.17;1.80;;;18.50;99.90;;;;;;4954400;28;20035;-65
2022/08/21 06:49:23;;;;;;;1.08;0.98;;;18.60;99.90;;;;;;4954179;28;20027;-63
2022/08/21 06:51:49;;;;;;;0.45;0.45;;;18.70;99.90;;;;;;4954085;28;20035;-65
2022/08/21 06:54:15;;;;;;;0.70;0.70;;;18.80;99.90;;;;;;4953945;28;20399;-65
2022/08/21 06:56:40;;;;;;;0.20;0.20;;;18.80;99.90;;;;;;4949478;28;20032;-65
2022/08/21 06:59:07;;;;;;;0.52;0.52;;;18.90;99.90;;;;;;4934795;29;20039;-65
2022/08/21 07:01:32;;;;;;;1.50;1.40;;;18.90;99.90;;;;;;4934868;29;20039;-66
2022/08/21 07:03:58;;;;;;;0.03;0.03;;;19.00;99.90;;;;;;4949314;29;20090;-65
2022/08/21 07:06:24;;;;;;;0.57;0.38;;;19.20;99.90;;;;;;4934836;29;20082;-65
2022/08/21 07:08:50;;;;;;;0.30;0.30;;;19.20;99.90;;;;;;4934402;29;20117;-65
2022/08/21 07:11:22;;;;;;;2.20;2.00;;;19.30;99.90;;;;;;4949326;29;20032;-65
2022/08/21 07:13:50;;;;;;;0.73;0.73;;;19.40;99.90;;;;;;4949072;29;20411;-65
2022/08/21 07:16:16;;;;;;;0.15;0.15;;;19.50;99.90;;;;;;4934622;29;20126;-65
2022/08/21 07:18:42;;;;;;;0.00;0.00;;;19.60;99.90;;;;;;4942085;29;20151;-65
2022/08/21 07:21:09;;;;;;;0.00;0.00;;;19.70;99.90;;;;;;4953555;28;20036;-64
2022/08/21 07:23:45;;;;;;;1.20;0.90;;;19.80;99.90;;;;;;4953160;28;20032;-64
2022/08/21 07:26:13;;;;;;;0.65;0.38;;;19.90;99.90;;;;;;4968126;28;20031;-64
2022/08/21 07:28:39;;;;;;;3.50;1.40;;;20.00;99.90;;;;;;4953323;28;20038;-64
2022/08/21 07:31:05;;;;;;;0.25;0.17;;;20.10;99.90;;;;;;4952936;28;20380;-64
2022/08/21 07:33:34;;;;;;;4.55;0.90;;;20.20;99.90;;;;;;4953208;29;20045;-64
2022/08/21 07:36:00;;;;;;;0.10;0.10;;;20.30;99.90;;;;;;4950148;29;20069;-65
2022/08/21 07:38:26;;;;;;;0.00;0.00;;;20.30;99.90;;;;;;4953392;28;20038;-65
2022/08/21 07:40:56;;;;;;;3.50;1.10;;;20.40;99.90;;;;;;4953242;28;20129;-64
2022/08/21 07:43:22;;;;;;;0.20;0.20;;;20.50;99.90;;;;;;4953069;29;20122;-65
2022/08/21 07:45:53;;;;;;;0.20;0.13;;;20.60;99.90;;;;;;4952961;29;20619;-65
2022/08/21 07:48:20;;;;;;;;;;;20.70;99.90;;;;;;4953562;28;20114;-65
2022/08/21 07:50:46;;;;;;;0.05;0.05;;;20.80;99.90;;;;;;4953040;29;19910;-65
2022/08/21 07:53:12;;;;;;;0.15;0.10;;;20.90;99.90;;;;;;4967776;28;20035;-65
2022/08/21 07:55:38;;;;;;;0.38;0.38;;;21.00;99.80;;;;;;4952973;28;20027;-65
2022/08/21 07:58:04;;;;;;;0.10;0.10;;;21.10;99.30;;;;;;4952780;28;20035;-65
2022/08/21 08:00:30;;;;;;;0.38;0.30;;;21.10;98.90;;;;;;4952910;28;20042;-65
2022/08/21 08:02:57;;;;;;;0.30;0.25;;;21.20;98.60;;;;;;4952811;28;20492;-65
2022/08/21 08:05:29;;;;;;;0.30;0.20;;;21.10;98.60;;;;;;4951733;29;20101;-65
2022/08/21 08:07:55;;;;;;;0.65;0.65;;;21.20;98.70;;;;;;4965703;23;20038;-73
2022/08/21 08:10:22;;;;;;;0.70;0.70;;;21.20;98.60;;;;;;4948592;28;20046;-73
2022/08/21 08:12:50;;;;;;;0.73;0.73;;;21.40;98.70;;;;;;4970673;28;20054;-72
2022/08/21 08:15:22;;;;;;;0.15;0.15;;;21.40;98.30;;;;;;4970707;28;20682;-72
2022/08/21 08:17:48;;;;;;;0.15;0.10;;;21.50;97.70;;;;;;4972702;28;20031;-72
2022/08/21 08:20:15;;;;;;;0.00;0.00;;;21.50;97.70;;;;;;4991280;28;20168;-73
2022/08/21 08:22:42;;;;;;;0.00;0.00;;;21.70;97.70;;;;;;4991076;28;20030;-73
2022/08/21 08:25:09;;;;;;;2.30;1.67;;;21.70;97.30;;;;;;4991317;28;20478;-72
2022/08/21 08:27:36;;;;;;;0.40;0.40;;;21.80;97.20;;;;;;4974517;28;20177;-73
2022/08/21 08:30:03;;;;;;;0.10;0.10;;;21.90;97.00;;;;;;4954593;28;20039;-73
2022/08/21 08:32:28;;;;;;;0.00;0.00;;;21.90;96.90;;;;;;4970432;28;20395;-72
2022/08/21 08:34:54;;;;;;;2.03;1.10;;;22.00;96.90;;;;;;4971580;28;20022;-73
2022/08/21 08:37:20;;;;;;;0.20;0.20;;;22.10;96.90;;;;;;4954468;28;20023;-73
2022/08/21 08:39:47;;;;;;;0.30;0.30;;;22.20;97.10;;;;;;4971509;28;20039;-73
2022/08/21 08:42:30;;;;;;;0.45;0.38;;;22.30;97.20;;;;;;4954381;28;20129;-73
2022/08/21 08:45:08;;;;;;;0.88;0.85;;;22.40;97.00;;;;;;4975701;28;20125;-73
2022/08/21 08:47:48;;;;;;;1.55;0.52;;;22.50;96.90;;;;;;4976072;28;20058;-73
2022/08/21 08:50:53;;;;;;;0.28;0.28;;;22.70;96.90;;;;;;4974591;28;20557;-73
2022/08/21 08:53:28;;;;;;;0.60;0.52;;;22.80;97.10;;;;;;4959424;28;20089;-73
2022/08/21 08:55:55;;;;;;;0.20;0.13;;;22.80;96.60;;;;;;4974318;28;20035;-73
2022/08/21 08:58:32;;;;;;;1.88;1.17;;;22.90;96.80;;;;;;4975177;28;20030;-73
2022/08/21 09:00:59;;;;;;;1.95;1.38;;;23.00;96.40;;;;;;4974020;28;20586;-72
2022/08/21 09:03:27;;;;;;;0.32;0.32;;;23.10;96.10;;;;;;4975113;28;20065;-72
2022/08/21 09:06:17;;;;;;;5.85;0.80;;;23.20;96.30;;;;;;4975423;28;20045;-72
2022/08/21 09:09:25;;;;;;;0.30;0.30;;;23.30;96.00;;;;;;4973540;28;20466;-72
2022/08/21 09:12:12;;;;;;;0.30;0.28;;;23.60;95.70;;;;;;4938628;29;20038;-72
2022/08/21 09:15:26;;;;;;;0.82;0.70;;;23.70;95.30;;;;;;4938628;29;20035;-72
2022/08/21 09:18:25;;;;;;;0.82;0.60;;;23.80;94.90;;;;;;4942142;28;20500;-72
2022/08/21 09:21:27;;;;;;;0.73;0.47;;;23.90;94.80;;;;;;4940583;29;20061;-72
2022/08/21 09:24:10;;;;;;;0.70;0.45;;;24.00;94.70;;;;;;4938339;29;20152;-72
2022/08/21 09:27:06;;;;;;;4.80;0.28;;;24.00;94.60;;;;;;4947538;28;20122;-72
2022/08/21 09:29:39;;;;;;;4.43;1.10;;;24.00;94.50;;;;;;4975530;28;20035;-72
2022/08/21 09:32:20;;;;;;;0.70;0.65;;;24.10;94.40;;;;;;4974734;28;20042;-72
2022/08/21 09:35:03;;;;;;;0.63;0.63;;;24.30;93.80;;;;;;4973763;28;20035;-72
2022/08/21 09:37:31;;;;;;;1.15;0.75;;;24.50;93.20;;;;;;4973650;28;20038;-72
2022/08/21 09:39:58;;;;;;;0.30;0.15;;;24.70;93.00;;;;;;4974382;28;20526;-72
2022/08/21 09:42:31;;;;;;;0.63;0.45;;;24.80;92.50;;;;;;4957207;28;20035;-71
2022/08/21 09:45:18;;;;;;;0.32;0.32;;;24.90;91.80;;;;;;4974653;28;20027;-73
2022/08/21 09:47:45;;;;;;;0.40;0.40;;;25.10;91.50;;;;;;4973526;28;20060;-72
2022/08/21 09:50:31;;;;;;;0.20;0.20;;;25.30;91.10;;;;;;4974162;28;20031;-73
2022/08/21 09:53:00;;;;;;;1.08;0.90;;;25.30;88.80;;;;;;4956646;28;20510;-72
2022/08/21 09:58:34;;;;;;;5.70;0.77;;;24.80;88.60;;;;;;4967246;28;20042;-72
2022/08/21 10:01:03;;;;;;;0.10;0.08;;;25.00;88.30;;;;;;4953606;29;20030;-73
2022/08/21 10:03:30;;;;;;;1.00;0.90;;;25.50;88.20;;;;;;4937603;29;20032;-71
2022/08/21 10:06:09;;;;;;;0.10;0.10;;;25.60;87.00;;;;;;4953742;29;20038;-70
2022/08/21 10:08:38;;;;;;;0.00;0.00;;;25.80;86.50;;;;;;4953329;28;20503;-70
2022/08/21 10:11:11;;;;;;;0.25;0.25;;;25.80;85.70;;;;;;4953590;29;20039;-73
2022/08/21 10:14:25;;;;;;;0.40;0.35;;;25.80;83.60;;;;;;4953150;29;20119;-74
2022/08/21 10:17:17;;;;;;;1.10;0.30;;;25.90;83.80;;;;;;4954046;29;20086;-71
2022/08/21 10:19:55;;;;;;;0.30;0.30;;;26.00;83.90;;;;;;4954371;28;20061;-71
2022/08/21 10:22:38;;;;;;;0.30;0.30;;;26.20;83.00;;;;;;4954537;29;20039;-71
2022/08/21 10:25:37;;;;;;;0.45;0.45;;;26.20;83.20;;;;;;4953374;29;20035;-71
2022/08/21 10:28:36;;;;;;;0.73;0.73;;;26.20;83.30;;;;;;4953352;28;20031;-72
2022/08/21 10:31:32;;;;;;;1.55;0.40;;;26.00;83.40;;;;;;4954416;29;20042;-72
2022/08/21 10:34:20;;;;;;;1.50;0.82;;;26.20;81.90;;;;;;4936876;29;20023;-72
2022/08/21 10:37:13;;;;;;;0.00;0.00;;;26.60;82.70;;;;;;4953539;29;20023;-72
2022/08/21 10:40:08;;;;;;;1.33;1.05;;;26.90;82.20;;;;;;4953191;28;20031;-71
2022/08/21 10:43:07;;;;;;;0.80;0.80;;;27.00;82.20;;;;;;4952925;29;20031;-72
2022/08/21 10:46:29;;;;;;;0.10;0.10;;;27.10;81.30;;;;;;4952967;29;20390;-72
2022/08/21 10:49:17;;;;;;;1.50;0.75;;;27.10;80.30;;;;;;4954063;28;20114;-72
2022/08/21 10:52:17;;;;;;;0.00;0.00;;;26.80;80.90;;;;;;4953212;29;20441;-71
2022/08/21 10:55:11;;;;;;;0.50;0.50;;;26.70;81.30;;;;;;4952909;29;20515;-71
2022/08/21 10:57:50;;;;;;;0.20;0.20;;;26.70;81.50;;;;;;4970936;28;20137;-71
2022/08/21 11:00:24;;;;;;;0.47;0.35;;;27.10;80.40;;;;;;4974205;28;20106;-71
2022/08/21 11:03:28;;;;;;;1.70;1.02;;;27.20;79.20;;;;;;4967956;28;20559;-71
2022/08/21 11:06:10;;;;;;;0.35;0.35;;;27.40;78.90;;;;;;4953137;28;20511;-71
2022/08/21 11:08:50;;;;;;;0.63;0.55;;;27.80;79.60;;;;;;4953593;28;20035;-71
2022/08/21 11:11:33;;;;;;;0.08;0.05;;;28.10;77.20;;;;;;4967720;28;20027;-71
2022/08/21 11:14:20;;;;;;;2.08;0.60;;;28.10;76.10;;;;;;4967714;28;20122;-71
2022/08/21 11:16:53;;;;;;;11.60;0.80;;;27.90;75.50;;;;;;4953549;29;20106;-71
2022/08/21 11:19:47;;;;;;;0.08;0.05;;;27.50;75.50;;;;;;4967891;28;20111;-72
2022/08/21 11:22:18;;;;;;;0.40;0.40;;;27.10;76.00;;;;;;4967023;28;20027;-71
2022/08/21 11:24:55;;;;;;;1.10;0.60;;;27.30;77.00;;;;;;4983719;28;20056;-72
2022/08/21 11:27:38;;;;;;;0.82;0.68;;;27.70;76.50;;;;;;4975577;28;20090;-73
2022/08/21 11:30:06;;;;;;;0.30;0.30;;;27.70;75.30;;;;;;4972360;28;20116;-73
2022/08/21 11:33:04;;;;;;;0.40;0.22;;;28.00;74.20;;;;;;4971386;28;20035;-73
2022/08/21 11:35:46;;;;;;;0.52;0.38;;;28.10;73.70;;;;;;4971565;28;20027;-73
2022/08/21 11:38:37;;;;;;;0.85;0.73;;;28.50;73.80;;;;;;4971146;28;20030;-74
2022/08/21 11:41:28;;;;;;;0.63;0.30;;;28.10;72.70;;;;;;4972786;28;20041;-73
2022/08/21 11:44:23;;;;;;;0.00;0.00;;;27.90;72.80;;;;;;4971098;28;20502;-75
2022/08/21 11:47:11;;;;;;;0.50;0.30;;;28.20;72.60;;;;;;4972423;28;20035;-75
2022/08/21 11:50:01;;;;;;;0.47;0.45;;;27.90;71.90;;;;;;4972251;28;20042;-74
2022/08/21 11:52:52;;;;;;;0.20;0.17;;;28.30;71.20;;;;;;4987304;28;20027;-73
2022/08/21 11:55:26;;;;;;;1.65;0.38;;;28.50;71.40;;;;;;4971186;28;20027;-74
2022/08/21 11:58:35;;;;;;;0.10;0.10;;;28.30;71.30;;;;;;4971101;28;20391;-75
2022/08/21 12:01:15;;;;;;;0.15;0.15;;;28.10;71.40;;;;;;4956059;28;20113;-74
2022/08/21 12:04:02;;;;;;;2.17;0.43;;;28.50;72.00;;;;;;4970821;28;20098;-74
2022/08/21 12:06:36;;;;;;;3.70;0.52;;;29.00;71.80;;;;;;4971321;28;20038;-75
2022/08/21 12:09:34;;;;;;;0.40;0.40;;;29.50;69.90;;;;;;4970699;28;20064;-74
2022/08/21 12:12:02;;;;;;;0.08;0.08;;;29.20;70.00;;;;;;4971215;28;20030;-73
2022/08/21 12:14:49;;;;;;;0.45;0.45;;;28.90;69.90;;;;;;4972292;28;20089;-77
2022/08/21 12:17:35;;;;;;;0.10;0.10;;;29.10;70.40;;;;;;4970900;28;20081;-72
2022/08/21 12:20:23;;;;;;;0.40;0.28;;;29.10;69.50;;;;;;4956276;28;20082;-73
2022/08/21 12:23:03;;;;;;;3.83;1.10;;;29.30;70.60;;;;;;4970757;28;20027;-73
2022/08/21 12:26:00;;;;;;;0.25;0.20;;;29.60;71.30;;;;;;4970881;28;20081;-73
2022/08/21 12:28:28;;;;;;;0.03;0.03;;;30.30;69.10;;;;;;4954654;28;20035;-73
2022/08/21 12:30:54;;;;;;;0.05;0.05;;;30.40;67.10;;;;;;4954630;28;20034;-73
2022/08/21 12:33:43;;;;;;;5.75;0.60;;;30.20;68.10;;;;;;4971855;28;20031;-73
2022/08/21 12:36:21;;;;;;;0.63;0.47;;;29.30;67.70;;;;;;4985743;28;20042;-73
2022/08/21 12:39:10;;;;;;;0.45;0.45;;;29.50;68.20;;;;;;4970527;28;20047;-73
2022/08/21 12:41:51;;;;;;;0.60;0.50;;;29.10;68.30;;;;;;4970838;28;20039;-69
2022/08/21 12:44:38;;;;;;;0.30;0.30;;;29.30;68.50;;;;;;4971586;28;20038;-68
2022/08/21 12:47:27;;;;;;;1.58;0.15;;;28.90;66.10;;;;;;4970799;28;20041;-68
2022/08/21 12:50:00;;;;;;;2.03;1.08;;;29.10;65.70;;;;;;4969895;28;20133;-69
2022/08/21 12:52:44;;;;;;;0.00;0.00;;;29.60;66.10;;;;;;4969420;28;20023;-69
2022/08/21 12:55:16;;;;;;;0.10;0.08;;;29.60;64.30;;;;;;4969849;28;20364;-67
2022/08/21 12:57:42;;;;;;;0.90;0.60;;;29.40;65.10;;;;;;4970494;28;20037;-67
2022/08/21 13:00:13;;;;;;;0.17;0.13;;;29.80;65.30;;;;;;4972391;28;20394;-68
2022/08/21 13:02:47;;;;;;;0.00;0.00;;;30.00;64.60;;;;;;4966864;28;20531;-68
2022/08/21 13:05:22;;;;;;;0.57;0.47;;;30.00;64.80;;;;;;4966494;28;20114;-67
2022/08/21 13:07:48;;;;;;;0.13;0.10;;;30.20;64.50;;;;;;4966248;28;20027;-68
2022/08/21 13:10:27;;;;;;;0.15;0.15;;;30.50;64.50;;;;;;4966411;28;20405;-68
2022/08/21 13:13:03;;;;;;;0.00;0.00;;;30.50;63.40;;;;;;4953908;28;20437;-67
2022/08/21 13:15:33;;;;;;;0.10;0.10;;;30.40;63.10;;;;;;4969170;28;20035;-69
2022/08/21 13:18:03;;;;;;;0.63;0.63;;;30.40;64.00;;;;;;4969337;28;20035;-69